createdAt,value
2023-06-19T00:01:41.768Z,66.20
2023-06-19T00:04:08.926Z,66.30
2023-06-19T00:06:35.821Z,66.40
2023-06-19T00:09:02.934Z,66.50
2023-06-19T00:11:30.243Z,66.40
2023-06-19T00:13:57.074Z,66.40
2023-06-19T00:16:26.230Z,66.50
2023-06-19T00:18:56.728Z,66.70
2023-06-19T00:21:27.016Z,66.80
2023-06-19T00:23:54.720Z,66.80
2023-06-19T00:26:23.746Z,66.90
2023-06-19T00:28:50.658Z,66.90
2023-06-19T00:31:17.637Z,67.00
2023-06-19T00:33:45.102Z,67.10
2023-06-19T00:36:12.611Z,67.10
2023-06-19T00:38:40.102Z,67.00
2023-06-19T00:41:07.209Z,67.00
2023-06-19T00:43:34.517Z,67.10
2023-06-19T00:46:02.263Z,67.10
2023-06-19T00:48:29.798Z,67.20
2023-06-19T00:51:00.705Z,67.30
2023-06-19T00:53:27.887Z,67.50
2023-06-19T00:55:56.049Z,67.50
2023-06-19T00:58:24.550Z,67.60
2023-06-19T01:01:03.914Z,67.70
2023-06-19T01:03:38.387Z,67.80
2023-06-19T01:06:09.355Z,68.00
2023-06-19T01:08:54.995Z,68.00
2023-06-19T01:11:29.107Z,68.10
2023-06-19T01:14:09.624Z,68.10
2023-06-19T01:16:36.902Z,68.20
2023-06-19T01:19:04.949Z,68.20
2023-06-19T01:21:31.952Z,68.30
2023-06-19T01:23:58.883Z,68.40
2023-06-19T01:26:29.307Z,68.40
2023-06-19T01:28:57.847Z,68.60
2023-06-19T01:31:29.780Z,68.70
2023-06-19T01:33:57.484Z,68.70
2023-06-19T01:36:24.821Z,68.70
2023-06-19T01:38:53.669Z,68.70
2023-06-19T01:41:20.873Z,68.60
2023-06-19T01:43:48.754Z,68.60
2023-06-19T01:46:15.816Z,68.60
2023-06-19T01:48:42.725Z,68.50
2023-06-19T01:51:09.569Z,68.50
2023-06-19T01:53:39.552Z,68.50
2023-06-19T01:56:06.458Z,68.60
2023-06-19T01:58:33.329Z,68.60
2023-06-19T02:01:01.916Z,68.70
2023-06-19T02:03:28.947Z,68.70
2023-06-19T02:05:55.859Z,68.70
2023-06-19T02:08:22.678Z,68.80
2023-06-19T02:10:49.555Z,68.70
2023-06-19T02:13:16.399Z,68.80
2023-06-19T02:15:43.286Z,68.80
2023-06-19T02:18:10.169Z,68.70
2023-06-19T02:20:37.108Z,68.70
2023-06-19T02:23:03.960Z,68.90
2023-06-19T02:25:30.828Z,69.20
2023-06-19T02:27:58.053Z,69.40
2023-06-19T02:30:25.224Z,69.50
2023-06-19T02:32:52.311Z,69.70
2023-06-19T02:35:20.165Z,69.80
2023-06-19T02:37:48.214Z,70.10
2023-06-19T02:40:15.557Z,70.30
2023-06-19T02:42:42.572Z,70.50
2023-06-19T02:45:09.597Z,70.70
2023-06-19T02:47:36.526Z,70.80
2023-06-19T02:50:04.789Z,71.00
2023-06-19T02:52:32.397Z,71.10
2023-06-19T02:55:00.348Z,71.30
2023-06-19T02:57:27.309Z,71.40
2023-06-19T02:59:54.175Z,71.40
2023-06-19T03:02:21.279Z,71.60
2023-06-19T03:04:48.425Z,72.30
2023-06-19T03:07:15.263Z,71.50
2023-06-19T03:09:42.502Z,71.70
2023-06-19T03:12:09.986Z,71.70
2023-06-19T03:14:37.618Z,71.80
2023-06-19T03:17:04.837Z,71.90
2023-06-19T03:19:32.501Z,72.00
2023-06-19T03:21:59.788Z,72.00
2023-06-19T03:24:27.580Z,72.10
2023-06-19T03:27:00.957Z,72.10
2023-06-19T03:29:28.070Z,72.30
2023-06-19T03:32:05.189Z,72.30
2023-06-19T03:34:34.261Z,72.30
2023-06-19T03:37:05.062Z,72.40
2023-06-19T03:39:32.517Z,72.60
2023-06-19T03:42:06.043Z,72.60
2023-06-19T03:44:33.411Z,72.70
2023-06-19T03:47:00.430Z,72.80
2023-06-19T03:49:27.917Z,72.90
2023-06-19T03:51:55.589Z,72.90
2023-06-19T03:54:22.652Z,72.90
2023-06-19T03:56:49.694Z,72.90
2023-06-19T03:59:17.884Z,72.90
2023-06-19T04:01:45.014Z,72.90
2023-06-19T04:04:11.988Z,72.90
2023-06-19T04:06:38.887Z,73.00
2023-06-19T04:09:07.220Z,73.00
2023-06-19T04:11:35.058Z,73.00
2023-06-19T04:14:02.915Z,73.00
2023-06-19T04:16:30.621Z,72.90
2023-06-19T04:18:57.806Z,72.70
2023-06-19T04:21:25.706Z,72.50
2023-06-19T04:23:52.738Z,72.30
2023-06-19T04:26:20.165Z,72.20
2023-06-19T04:28:47.096Z,72.80
2023-06-19T04:31:19.069Z,71.80
2023-06-19T04:33:47.005Z,71.60
2023-06-19T04:36:14.894Z,71.40
2023-06-19T04:38:41.914Z,71.20
2023-06-19T04:41:08.882Z,70.90
2023-06-19T04:43:35.856Z,70.70
2023-06-19T04:46:05.079Z,70.50
2023-06-19T04:48:32.242Z,71.00
2023-06-19T04:51:02.257Z,70.10
2023-06-19T04:53:29.156Z,69.70
2023-06-19T04:55:56.382Z,69.40
2023-06-19T04:58:23.416Z,69.10
2023-06-19T05:00:53.616Z,68.90
2023-06-19T05:03:20.729Z,68.70
2023-06-19T05:05:48.146Z,68.60
2023-06-19T05:08:15.111Z,68.30
2023-06-19T05:10:44.182Z,67.90
2023-06-19T05:13:12.464Z,67.60
2023-06-19T05:15:39.385Z,67.30
2023-06-19T05:18:06.275Z,67.20
2023-06-19T05:20:33.129Z,67.00
2023-06-19T05:22:59.957Z,66.70
2023-06-19T05:25:26.871Z,66.80
2023-06-19T05:27:53.741Z,66.70
2023-06-19T05:30:20.567Z,66.50
2023-06-19T05:32:47.448Z,66.40
2023-06-19T05:35:16.594Z,65.60
2023-06-19T05:37:46.786Z,64.90
2023-06-19T05:40:13.813Z,63.80
2023-06-19T05:42:41.156Z,63.10
2023-06-19T05:45:08.374Z,62.30
2023-06-19T05:47:35.445Z,61.70
2023-06-19T05:50:02.457Z,61.30
2023-06-19T05:52:29.339Z,60.50
2023-06-19T05:54:56.248Z,59.70
2023-06-19T05:57:23.109Z,59.50
2023-06-19T05:59:50.318Z,59.40
2023-06-19T06:02:18.059Z,59.40
2023-06-19T06:04:44.931Z,59.60
2023-06-19T06:07:12.280Z,59.60
2023-06-19T06:09:39.102Z,59.30
2023-06-19T06:12:06.248Z,58.50
2023-06-19T06:14:33.134Z,57.90
2023-06-19T06:17:00.132Z,57.50
2023-06-19T06:19:27.221Z,57.10
2023-06-19T06:21:54.129Z,56.50
2023-06-19T06:24:21.148Z,55.90
2023-06-19T06:26:48.098Z,55.30
2023-06-19T06:29:15.031Z,54.60
2023-06-19T06:31:42.654Z,54.30
2023-06-19T06:34:09.965Z,54.00
2023-06-19T06:36:39.004Z,53.60
2023-06-19T06:39:12.673Z,53.00
2023-06-19T06:41:39.985Z,52.10
2023-06-19T06:44:06.976Z,52.20
2023-06-19T06:46:33.874Z,53.00
2023-06-19T06:49:00.745Z,53.90
2023-06-19T06:51:27.764Z,55.10
2023-06-19T06:53:54.639Z,56.20
2023-06-19T06:56:21.522Z,56.80
2023-06-19T06:58:48.499Z,57.00
2023-06-19T07:01:15.438Z,57.30
2023-06-19T07:03:42.403Z,57.60
2023-06-19T07:06:09.287Z,57.70
2023-06-19T07:08:36.130Z,57.50
2023-06-19T07:11:03.034Z,57.50
2023-06-19T07:13:29.916Z,57.70
2023-06-19T07:15:56.899Z,57.90
2023-06-19T07:18:23.779Z,58.10
2023-06-19T07:20:50.800Z,57.90
2023-06-19T07:23:17.964Z,58.20
2023-06-19T07:25:46.404Z,57.90
2023-06-19T07:28:13.240Z,57.50
2023-06-19T07:30:40.526Z,57.30
2023-06-19T07:33:07.667Z,57.10
2023-06-19T07:35:34.523Z,57.10
2023-06-19T07:38:01.422Z,57.10
2023-06-19T07:40:28.519Z,57.20
2023-06-19T07:42:55.510Z,57.50
2023-06-19T07:45:24.567Z,57.80
2023-06-19T07:47:55.118Z,58.60
2023-06-19T07:50:23.040Z,59.00
2023-06-19T07:52:51.693Z,59.00
2023-06-19T07:55:18.562Z,59.90
2023-06-19T07:57:45.381Z,59.70
2023-06-19T08:00:13.873Z,60.80
2023-06-19T08:02:41.635Z,60.20
2023-06-19T08:05:09.541Z,60.10
2023-06-19T08:07:36.546Z,60.40
2023-06-19T08:10:13.994Z,60.40
2023-06-19T08:12:42.684Z,60.50
2023-06-19T08:15:10.076Z,60.40
2023-06-19T08:17:37.142Z,60.30
2023-06-19T08:20:06.392Z,60.40
2023-06-19T08:22:33.332Z,60.10
2023-06-19T08:25:00.213Z,59.80
2023-06-19T08:27:27.071Z,60.50
2023-06-19T08:29:54.034Z,59.50
2023-06-19T08:32:21.081Z,59.50
2023-06-19T08:34:47.887Z,59.20
2023-06-19T08:37:14.768Z,59.70
2023-06-19T08:39:41.698Z,60.00
2023-06-19T08:42:11.613Z,59.70
2023-06-19T08:44:39.668Z,59.40
2023-06-19T08:47:06.996Z,59.60
2023-06-19T08:49:34.983Z,59.60
2023-06-19T08:52:02.239Z,59.70
2023-06-19T08:54:29.110Z,59.80
2023-06-19T08:56:56.005Z,59.60
2023-06-19T08:59:23.022Z,59.00
2023-06-19T09:01:53.923Z,59.00
2023-06-19T09:04:32.135Z,59.20
2023-06-19T09:07:00.655Z,59.90
2023-06-19T09:09:29.350Z,59.80
2023-06-19T09:12:00.458Z,60.20
2023-06-19T09:14:33.632Z,60.00
2023-06-19T09:17:00.813Z,60.20
2023-06-19T09:19:27.708Z,60.40
2023-06-19T09:21:54.556Z,60.20
2023-06-19T09:24:21.514Z,60.30
2023-06-19T09:26:48.628Z,60.80
2023-06-19T09:29:21.310Z,61.20
2023-06-19T09:31:48.710Z,62.20
2023-06-19T09:34:15.606Z,61.70
2023-06-19T09:36:43.131Z,61.00
2023-06-19T09:39:10.985Z,60.90
2023-06-19T09:41:38.156Z,60.80
2023-06-19T09:44:13.252Z,60.10
2023-06-19T09:46:42.158Z,59.70
2023-06-19T09:49:09.738Z,59.40
2023-06-19T09:51:42.339Z,59.40
2023-06-19T09:54:10.601Z,58.90
2023-06-19T09:56:39.187Z,58.50
2023-06-19T09:59:06.389Z,58.30
2023-06-19T10:01:33.961Z,58.00
2023-06-19T10:04:12.368Z,57.60
2023-06-19T10:06:46.289Z,57.60
2023-06-19T10:09:15.260Z,56.50
2023-06-19T10:11:49.491Z,55.80
2023-06-19T10:14:19.424Z,55.60
2023-06-19T10:16:46.536Z,56.00
2023-06-19T10:19:17.310Z,54.90
2023-06-19T10:21:51.389Z,54.40
2023-06-19T10:24:20.719Z,53.90
2023-06-19T10:26:58.863Z,53.50
2023-06-19T10:29:26.831Z,54.40
2023-06-19T10:31:54.288Z,54.80
2023-06-19T10:34:21.224Z,54.50
2023-06-19T10:36:48.083Z,53.20
2023-06-19T10:39:15.196Z,53.20
2023-06-19T10:41:42.256Z,52.00
2023-06-19T10:44:15.865Z,49.20
2023-06-19T10:46:42.799Z,48.80
2023-06-19T10:49:11.469Z,50.10
2023-06-19T10:51:39.562Z,48.90
2023-06-19T10:54:06.606Z,48.60
2023-06-19T10:56:33.667Z,49.70
2023-06-19T10:59:05.464Z,47.00
2023-06-19T11:01:39.518Z,45.10
2023-06-19T11:04:10.391Z,41.30
2023-06-19T11:06:38.017Z,39.50
2023-06-19T11:09:06.392Z,39.80
2023-06-19T11:11:43.454Z,40.90
2023-06-19T11:14:10.998Z,41.20
2023-06-19T11:16:44.713Z,42.00
2023-06-19T11:19:16.166Z,41.50
2023-06-19T11:21:46.052Z,42.70
2023-06-19T11:24:13.980Z,43.50
2023-06-19T11:26:44.994Z,44.60
2023-06-19T11:29:16.397Z,45.60
2023-06-19T11:31:43.359Z,47.00
2023-06-19T11:34:10.324Z,47.40
2023-06-19T11:36:40.440Z,47.00
2023-06-19T11:39:12.460Z,47.50
2023-06-19T11:41:39.469Z,47.10
2023-06-19T11:44:07.386Z,46.20
2023-06-19T11:46:35.260Z,46.40
2023-06-19T11:49:33.494Z,47.00
2023-06-19T11:52:00.390Z,47.30
2023-06-19T11:54:27.281Z,47.00
2023-06-19T11:56:54.157Z,46.10
2023-06-19T11:59:21.183Z,45.70
2023-06-19T12:01:48.552Z,45.10
2023-06-19T12:04:18.433Z,45.20
2023-06-19T12:06:45.556Z,43.80
2023-06-19T12:09:12.780Z,43.80
2023-06-19T12:11:39.617Z,43.70
2023-06-19T12:14:06.512Z,43.80
2023-06-19T12:16:33.398Z,42.60
2023-06-19T12:19:00.469Z,42.90
2023-06-19T12:21:37.318Z,44.10
2023-06-19T12:24:06.205Z,44.50
2023-06-19T12:26:37.568Z,44.70
2023-06-19T12:29:05.094Z,45.10
2023-06-19T12:31:37.145Z,45.00
2023-06-19T12:34:13.999Z,44.20
2023-06-19T12:36:47.958Z,44.50
2023-06-19T12:39:15.933Z,43.20
2023-06-19T12:41:42.816Z,42.90
2023-06-19T12:44:09.662Z,43.60
2023-06-19T12:46:36.665Z,43.70
2023-06-19T12:49:03.716Z,43.60
2023-06-19T12:51:30.622Z,42.70
2023-06-19T12:53:57.443Z,41.60
2023-06-19T12:56:24.393Z,41.90
2023-06-19T12:58:51.217Z,42.70
2023-06-19T13:01:18.621Z,43.30
2023-06-19T13:03:45.968Z,43.70
2023-06-19T13:06:13.024Z,44.50
2023-06-19T13:08:40.022Z,45.00
2023-06-19T13:11:06.920Z,44.60
2023-06-19T13:13:33.798Z,43.80
2023-06-19T13:16:00.829Z,43.60
2023-06-19T13:18:27.846Z,43.30
2023-06-19T13:20:54.779Z,42.90
2023-06-19T13:23:21.690Z,43.80
2023-06-19T13:25:48.644Z,42.70
2023-06-19T13:28:15.574Z,43.50
2023-06-19T13:30:42.468Z,43.40
2023-06-19T13:33:10.022Z,43.90
2023-06-19T13:35:37.021Z,44.50
2023-06-19T13:38:03.916Z,44.40
2023-06-19T13:40:31.229Z,44.20
2023-06-19T13:42:58.387Z,43.80
2023-06-19T13:45:25.280Z,43.90
2023-06-19T13:47:52.304Z,44.50
2023-06-19T13:50:19.771Z,44.80
2023-06-19T13:52:47.226Z,44.60
2023-06-19T13:55:15.599Z,44.30
2023-06-19T13:57:45.638Z,44.40
2023-06-19T14:00:13.023Z,44.20
2023-06-19T14:02:40.153Z,44.10
2023-06-19T14:05:07.864Z,43.90
2023-06-19T14:07:36.090Z,43.90
2023-06-19T14:10:04.003Z,44.20
2023-06-19T14:12:31.545Z,43.90
2023-06-19T14:14:58.460Z,44.50
2023-06-19T14:17:25.470Z,44.10
2023-06-19T14:19:52.397Z,43.80
2023-06-19T14:22:19.562Z,43.80
2023-06-19T14:24:46.542Z,44.10
2023-06-19T14:27:13.752Z,44.70
2023-06-19T14:29:41.537Z,44.70
2023-06-19T14:32:08.392Z,44.90
2023-06-19T14:34:35.229Z,45.10
2023-06-19T14:37:02.092Z,44.90
2023-06-19T14:39:28.940Z,44.70
2023-06-19T14:41:56.611Z,44.90
2023-06-19T14:44:23.487Z,45.10
2023-06-19T14:46:50.332Z,44.80
2023-06-19T14:49:17.194Z,44.30
2023-06-19T14:51:44.323Z,44.30
2023-06-19T14:54:11.304Z,44.90
2023-06-19T14:56:38.184Z,44.70
2023-06-19T14:59:05.084Z,44.70
2023-06-19T15:01:31.972Z,44.90
2023-06-19T15:03:59.243Z,45.50
2023-06-19T15:06:26.440Z,45.40
2023-06-19T15:08:53.392Z,45.30
2023-06-19T15:11:20.287Z,44.80
2023-06-19T15:13:47.162Z,44.90
2023-06-19T15:16:14.210Z,44.70
2023-06-19T15:18:41.550Z,45.50
2023-06-19T15:21:08.555Z,45.10
2023-06-19T15:23:35.858Z,45.00
2023-06-19T15:26:03.101Z,45.40
2023-06-19T15:28:29.935Z,45.60
2023-06-19T15:30:56.782Z,45.90
2023-06-19T15:33:23.720Z,46.00
2023-06-19T15:35:50.868Z,45.80
2023-06-19T15:38:17.820Z,45.70
2023-06-19T15:40:44.775Z,45.90
2023-06-19T15:43:11.731Z,46.30
2023-06-19T15:45:38.645Z,45.50
2023-06-19T15:48:06.350Z,45.10
2023-06-19T15:50:34.247Z,45.60
2023-06-19T15:53:01.236Z,46.00
2023-06-19T15:55:28.769Z,46.00
2023-06-19T15:57:55.757Z,45.90
2023-06-19T16:00:22.856Z,45.70
2023-06-19T16:02:50.193Z,45.40
2023-06-19T16:05:17.923Z,46.30
2023-06-19T16:07:44.919Z,46.90
2023-06-19T16:10:11.849Z,47.60
2023-06-19T16:12:38.713Z,46.90
2023-06-19T16:15:05.933Z,46.50
2023-06-19T16:17:32.980Z,46.20
2023-06-19T16:20:00.195Z,46.00
2023-06-19T16:22:27.181Z,46.40
2023-06-19T16:24:54.065Z,47.30
2023-06-19T16:27:20.888Z,46.80
2023-06-19T16:29:47.885Z,46.70
2023-06-19T16:32:14.809Z,47.00
2023-06-19T16:34:42.024Z,46.60
2023-06-19T16:37:09.149Z,46.70
2023-06-19T16:39:36.099Z,46.90
2023-06-19T16:42:03.167Z,47.30
2023-06-19T16:44:30.083Z,47.20
2023-06-19T16:46:57.135Z,46.70
2023-06-19T16:49:24.118Z,47.10
2023-06-19T16:51:51.109Z,47.50
2023-06-19T16:54:18.149Z,47.50
2023-06-19T16:56:45.031Z,48.30
2023-06-19T16:59:11.966Z,48.30
2023-06-19T17:01:39.015Z,48.50
2023-06-19T17:04:05.914Z,49.40
2023-06-19T17:06:32.805Z,49.30
2023-06-19T17:08:59.706Z,49.60
2023-06-19T17:11:28.048Z,50.00
2023-06-19T17:13:55.041Z,50.00
2023-06-19T17:16:22.311Z,50.60
2023-06-19T17:18:49.358Z,50.70
2023-06-19T17:21:16.259Z,51.40
2023-06-19T17:23:43.709Z,51.20
2023-06-19T17:26:10.610Z,51.40
2023-06-19T17:28:37.886Z,51.60
2023-06-19T17:31:05.000Z,52.20
2023-06-19T17:33:31.898Z,52.60
2023-06-19T17:35:59.882Z,52.90
2023-06-19T17:38:26.939Z,53.00
2023-06-19T17:40:54.092Z,53.50
2023-06-19T17:43:20.950Z,53.90
2023-06-19T17:45:47.841Z,54.30
2023-06-19T17:48:14.699Z,55.10
2023-06-19T17:50:41.670Z,55.30
2023-06-19T17:53:08.774Z,55.50
2023-06-19T17:55:35.629Z,55.60
2023-06-19T17:58:02.528Z,55.70
2023-06-19T18:00:29.937Z,56.20
2023-06-19T18:02:57.002Z,56.50
2023-06-19T18:05:23.917Z,56.60
2023-06-19T18:07:50.810Z,57.00
2023-06-19T18:10:17.645Z,57.40
2023-06-19T18:12:44.574Z,57.30
2023-06-19T18:15:11.650Z,57.50
2023-06-19T18:17:38.606Z,57.80
2023-06-19T18:20:06.395Z,58.30
2023-06-19T18:22:33.274Z,58.50
2023-06-19T18:25:00.159Z,58.60
2023-06-19T18:27:27.637Z,58.50
2023-06-19T18:29:54.572Z,58.50
2023-06-19T18:32:21.467Z,58.60
2023-06-19T18:34:48.334Z,58.60
2023-06-19T18:37:15.259Z,58.80
2023-06-19T18:39:42.158Z,59.00
2023-06-19T18:42:09.145Z,59.10
2023-06-19T18:44:36.165Z,59.30
2023-06-19T18:47:03.218Z,59.60
2023-06-19T18:49:32.272Z,59.90
2023-06-19T18:51:59.476Z,60.00
2023-06-19T18:54:26.327Z,60.40
2023-06-19T18:56:53.377Z,60.70
2023-06-19T18:59:20.993Z,61.10
2023-06-19T19:01:48.073Z,62.20
2023-06-19T19:04:14.982Z,61.80
2023-06-19T19:06:41.946Z,62.10
2023-06-19T19:09:09.897Z,63.10
2023-06-19T19:11:36.805Z,62.60
2023-06-19T19:14:03.765Z,63.00
2023-06-19T19:16:31.598Z,63.20
2023-06-19T19:18:58.489Z,63.50
2023-06-19T19:21:26.177Z,63.80
2023-06-19T19:23:53.203Z,64.00
2023-06-19T19:26:20.112Z,64.20
2023-06-19T19:28:46.970Z,64.50
2023-06-19T19:31:13.826Z,64.60
2023-06-19T19:33:40.785Z,64.80
2023-06-19T19:36:08.658Z,64.90
2023-06-19T19:38:35.585Z,65.00
2023-06-19T19:41:02.432Z,65.10
2023-06-19T19:43:29.317Z,65.30
2023-06-19T19:45:56.328Z,65.30
2023-06-19T19:48:23.296Z,65.50
2023-06-19T19:50:50.188Z,65.60
2023-06-19T19:53:17.029Z,65.80
2023-06-19T19:55:43.882Z,65.70
2023-06-19T19:58:10.721Z,65.80
2023-06-19T20:00:37.619Z,65.80
2023-06-19T20:03:04.609Z,66.10
2023-06-19T20:05:31.568Z,66.10
2023-06-19T20:07:58.473Z,66.20
2023-06-19T20:10:25.635Z,66.20
2023-06-19T20:12:52.712Z,66.40
2023-06-19T20:15:19.688Z,66.50
2023-06-19T20:17:46.591Z,66.60
2023-06-19T20:20:13.513Z,66.70
2023-06-19T20:22:40.409Z,66.80
2023-06-19T20:25:07.536Z,66.80
2023-06-19T20:27:34.366Z,66.90
2023-06-19T20:30:01.221Z,67.00
2023-06-19T20:32:28.114Z,67.10
2023-06-19T20:34:54.999Z,67.10
2023-06-19T20:37:21.895Z,67.20
2023-06-19T20:39:48.879Z,67.20
2023-06-19T20:42:17.723Z,67.30
2023-06-19T20:44:44.604Z,67.20
2023-06-19T20:47:11.445Z,67.20
2023-06-19T20:49:38.335Z,67.30
2023-06-19T20:52:05.388Z,67.30
2023-06-19T20:54:32.424Z,67.30
2023-06-19T20:56:59.352Z,67.40
2023-06-19T20:59:26.186Z,67.60
2023-06-19T21:01:57.412Z,67.80
2023-06-19T21:04:25.464Z,67.80
2023-06-19T21:06:52.386Z,67.90
2023-06-19T21:09:19.562Z,68.00
2023-06-19T21:11:46.852Z,68.20
2023-06-19T21:14:14.464Z,68.30
2023-06-19T21:16:42.359Z,68.50
2023-06-19T21:19:09.266Z,68.60
2023-06-19T21:21:36.151Z,68.80
2023-06-19T21:24:03.133Z,68.90
2023-06-19T21:26:30.095Z,68.90
2023-06-19T21:28:56.928Z,69.10
2023-06-19T21:31:23.877Z,69.20
2023-06-19T21:33:50.893Z,69.30
2023-06-19T21:36:17.763Z,69.40
2023-06-19T21:38:44.610Z,69.60
2023-06-19T21:41:11.510Z,69.60
2023-06-19T21:43:38.400Z,69.70
2023-06-19T21:46:05.251Z,69.70
2023-06-19T21:48:32.177Z,69.70
2023-06-19T21:50:59.025Z,69.70
2023-06-19T21:53:26.558Z,69.70
2023-06-19T21:55:53.431Z,69.70
2023-06-19T21:58:23.014Z,69.60
2023-06-19T22:00:49.922Z,69.50
2023-06-19T22:03:16.945Z,69.50
2023-06-19T22:05:43.893Z,69.40
2023-06-19T22:08:10.708Z,69.40
2023-06-19T22:10:37.565Z,69.30
2023-06-19T22:13:04.488Z,69.20
2023-06-19T22:15:32.145Z,69.30
2023-06-19T22:18:01.802Z,69.30
2023-06-19T22:20:28.752Z,69.40
2023-06-19T22:22:55.652Z,69.40
2023-06-19T22:25:22.622Z,69.50
2023-06-19T22:27:55.227Z,69.70
2023-06-19T22:30:22.822Z,69.70
2023-06-19T22:32:49.997Z,69.80
2023-06-19T22:35:16.878Z,69.90
2023-06-19T22:37:44.406Z,70.10
2023-06-19T22:40:11.555Z,70.20
2023-06-19T22:42:39.262Z,70.20
2023-06-19T22:45:09.684Z,70.30
2023-06-19T22:47:39.952Z,70.40
2023-06-19T22:50:11.270Z,70.40
2023-06-19T22:52:38.236Z,70.40
2023-06-19T22:55:05.675Z,70.50
2023-06-19T22:57:35.753Z,70.80
2023-06-19T23:00:07.075Z,71.00
2023-06-19T23:02:33.997Z,71.20
2023-06-19T23:05:00.914Z,72.10
2023-06-19T23:07:28.910Z,71.60
2023-06-19T23:09:57.431Z,71.80
2023-06-19T23:12:24.246Z,71.70
2023-06-19T23:14:51.088Z,71.80
2023-06-19T23:17:17.951Z,72.00
2023-06-19T23:19:44.754Z,72.50
2023-06-19T23:22:11.611Z,73.00
2023-06-19T23:24:41.358Z,73.30
2023-06-19T23:27:09.325Z,73.50
2023-06-19T23:29:37.216Z,73.40
2023-06-19T23:32:04.627Z,73.40
2023-06-19T23:34:33.304Z,73.40
2023-06-19T23:37:00.452Z,73.60
2023-06-19T23:39:27.417Z,73.70
2023-06-19T23:41:54.302Z,73.90
2023-06-19T23:44:21.133Z,74.00
2023-06-19T23:46:48.037Z,73.90
2023-06-19T23:49:15.021Z,74.00
2023-06-19T23:51:43.082Z,74.00
2023-06-19T23:54:09.929Z,74.20
2023-06-19T23:56:36.891Z,74.20
2023-06-19T23:59:03.731Z,74.30
